Bow Pilot — S6EN — position and weather

sailwx.info

Track history (hours):
 
Tides and Currents Weather Stations Pressure Air Temp Water Temp Dewpoint Dewpoint Depression Visibility Wind Speed Wind Dir Waves Ship Positions

Bow Pilot

Last reported at 2014-Sep-02 15:33 UTC. Time now 2014-Sep-03 05:00 UTC.
Position N 35°54' W 005°18'.

Length 104 m; draft 7.4 m.

Type: Ship. MMSI: 564978000.

Date/timePositionNaut miles runAvg speedWind from/ knotsBaromVisibWave heightAir tempDewpointWater temp
2014-Sep-02 15:33N 35°54' W 005°18'0 0.0
2014-Sep-02 14:33N 35°54' W 005°18'0 0.0
2014-Sep-02 13:33N 35°54' W 005°18'0 0.0
2014-Sep-02 12:33N 35°54' W 005°18'0 0.0
2014-Sep-02 11:30N 35°54' W 005°18'0 0.0
2014-Sep-02 10:33N 35°54' W 005°18'0 0.0
2014-Sep-02 09:33N 35°54' W 005°18'0 0.0
2014-Sep-02 08:33N 35°54' W 005°18'0 0.0
2014-Sep-02 07:33N 35°54' W 005°18'2 1.9
2014-Sep-02 06:33N 35°56' W 005°18'  
2014-Aug-30 02:32N 36°49' E 002°31'2711.7
2014-Aug-30 00:15N 36°52' E 003°04'6 0.2
2014-Aug-28 20:06N 36°46' E 003°04'4 3.6
2014-Aug-28 19:06N 36°48' E 003°08'0 0.2
2014-Aug-28 18:24N 36°48' E 003°08'0 0.0
2014-Aug-28 17:30N 36°48' E 003°08'0 0.0
2014-Aug-28 16:33N 36°48' E 003°08'0 0.0
2014-Aug-28 15:30N 36°48' E 003°08'0 0.0
2014-Aug-28 14:33N 36°48' E 003°08'0 0.0
2014-Aug-28 13:33N 36°48' E 003°08'0 0.0
2014-Aug-28 12:30N 36°48' E 003°08'0 0.0
2014-Aug-28 11:33N 36°48' E 003°08'0 0.0
2014-Aug-28 10:30N 36°48' E 003°08'0 0.1
2014-Aug-28 09:12N 36°48' E 003°08'0 0.0
2014-Aug-28 08:33N 36°48' E 003°08'0 0.0
2014-Aug-27 17:27N 36°48' E 003°08'0 0.1
2014-Aug-27 16:30N 36°48' E 003°08'0 0.0
2014-Aug-27 03:19N 36°48' E 003°08'0 0.0
2014-Aug-26 21:06N 36°48' E 003°08'0 0.0
2014-Aug-26 20:30N 36°48' E 003°08'0 0.0
2014-Aug-26 19:30N 36°48' E 003°08'0 0.0
2014-Aug-26 13:13N 36°48' E 003°08'0 0.0
2014-Aug-26 12:19N 36°48' E 003°08'0 0.0
2014-Aug-26 11:19N 36°48' E 003°08'0 0.0
2014-Aug-26 10:33N 36°48' E 003°08'0 0.0
2014-Aug-26 08:31N 36°48' E 003°08'0 0.0
2014-Aug-26 05:24N 36°48' E 003°08'0 0.0
2014-Aug-26 04:15N 36°48' E 003°08'0 0.0
2014-Aug-26 03:30N 36°48' E 003°08'0 0.0
2014-Aug-26 02:19N 36°48' E 003°08'0 0.0
2014-Aug-26 01:25N 36°48' E 003°08'0 0.0
2014-Aug-26 00:09N 36°48' E 003°08'0 0.0
2014-Aug-25 22:19N 36°48' E 003°08'0 0.0
2014-Aug-25 19:25N 36°48' E 003°08'0 0.0
2014-Aug-25 18:31N 36°48' E 003°08'0 0.0
2014-Aug-25 14:30N 36°48' E 003°08'0 0.0
2014-Aug-25 12:33N 36°48' E 003°08'0 0.0
2014-Aug-25 11:30N 36°48' E 003°08'0 0.0
2014-Aug-25 10:25N 36°48' E 003°08'0 0.0
2014-Aug-25 09:24N 36°48' E 003°08'0 0.0
2014-Aug-25 08:18N 36°48' E 003°08'0 0.0
2014-Aug-25 06:27N 36°48' E 003°08'56 9.3
2014-Aug-25 00:27N 37°09' E 004°12'1313.3
2014-Aug-24 23:29N 37°11' E 004°28'28912.6
2014-Aug-24 00:33N 37°36' E 010°31'1211.9
2014-Aug-23 23:33N 37°33' E 010°45'1212.0
2014-Aug-23 22:31N 37°30' E 011°00'2612.5
2014-Aug-23 20:26N 37°19' E 011°30'  
Track history (hours):
 
Tides and Currents Weather Stations Pressure Air Temp Water Temp Dewpoint Dewpoint Depression Visibility Wind Speed Wind Dir Waves Ship Positions

Bow Pilot

Last reported at 2014-Sep-02 15:33 UTC. Time now 2014-Sep-03 05:00 UTC.
Position N 35°54' W 005°18'.

Length 104 m; draft 7.4 m.

Type: Ship. MMSI: 564978000.

Date/timePositionNaut miles runAvg speedWind from/ knotsBaromVisibWave heightAir tempDewpointWater temp
2014-Sep-02 15:33N 35°54' W 005°18'0 0.0
2014-Sep-02 14:33N 35°54' W 005°18'0 0.0
2014-Sep-02 13:33N 35°54' W 005°18'0 0.0
2014-Sep-02 12:33N 35°54' W 005°18'0 0.0
2014-Sep-02 11:30N 35°54' W 005°18'0 0.0
2014-Sep-02 10:33N 35°54' W 005°18'0 0.0
2014-Sep-02 09:33N 35°54' W 005°18'0 0.0
2014-Sep-02 08:33N 35°54' W 005°18'0 0.0
2014-Sep-02 07:33N 35°54' W 005°18'2 1.9
2014-Sep-02 06:33N 35°56' W 005°18'  
2014-Aug-30 02:32N 36°49' E 002°31'2711.7
2014-Aug-30 00:15N 36°52' E 003°04'6 0.2
2014-Aug-28 20:06N 36°46' E 003°04'4 3.6
2014-Aug-28 19:06N 36°48' E 003°08'0 0.2
2014-Aug-28 18:24N 36°48' E 003°08'0 0.0
2014-Aug-28 17:30N 36°48' E 003°08'0 0.0
2014-Aug-28 16:33N 36°48' E 003°08'0 0.0
2014-Aug-28 15:30N 36°48' E 003°08'0 0.0
2014-Aug-28 14:33N 36°48' E 003°08'0 0.0
2014-Aug-28 13:33N 36°48' E 003°08'0 0.0
2014-Aug-28 12:30N 36°48' E 003°08'0 0.0
2014-Aug-28 11:33N 36°48' E 003°08'0 0.0
2014-Aug-28 10:30N 36°48' E 003°08'0 0.1
2014-Aug-28 09:12N 36°48' E 003°08'0 0.0
2014-Aug-28 08:33N 36°48' E 003°08'0 0.0
2014-Aug-27 17:27N 36°48' E 003°08'0 0.1
2014-Aug-27 16:30N 36°48' E 003°08'0 0.0
2014-Aug-27 03:19N 36°48' E 003°08'0 0.0
2014-Aug-26 21:06N 36°48' E 003°08'0 0.0
2014-Aug-26 20:30N 36°48' E 003°08'0 0.0
2014-Aug-26 19:30N 36°48' E 003°08'0 0.0
2014-Aug-26 13:13N 36°48' E 003°08'0 0.0
2014-Aug-26 12:19N 36°48' E 003°08'0 0.0
2014-Aug-26 11:19N 36°48' E 003°08'0 0.0
2014-Aug-26 10:33N 36°48' E 003°08'0 0.0
2014-Aug-26 08:31N 36°48' E 003°08'0 0.0
2014-Aug-26 05:24N 36°48' E 003°08'0 0.0
2014-Aug-26 04:15N 36°48' E 003°08'0 0.0
2014-Aug-26 03:30N 36°48' E 003°08'0 0.0
2014-Aug-26 02:19N 36°48' E 003°08'0 0.0
2014-Aug-26 01:25N 36°48' E 003°08'0 0.0
2014-Aug-26 00:09N 36°48' E 003°08'0 0.0
2014-Aug-25 22:19N 36°48' E 003°08'0 0.0
2014-Aug-25 19:25N 36°48' E 003°08'0 0.0
2014-Aug-25 18:31N 36°48' E 003°08'0 0.0
2014-Aug-25 14:30N 36°48' E 003°08'0 0.0
2014-Aug-25 12:33N 36°48' E 003°08'0 0.0
2014-Aug-25 11:30N 36°48' E 003°08'0 0.0
2014-Aug-25 10:25N 36°48' E 003°08'0 0.0
2014-Aug-25 09:24N 36°48' E 003°08'0 0.0
2014-Aug-25 08:18N 36°48' E 003°08'0 0.0
2014-Aug-25 06:27N 36°48' E 003°08'56 9.3
2014-Aug-25 00:27N 37°09' E 004°12'1313.3
2014-Aug-24 23:29N 37°11' E 004°28'28912.6
2014-Aug-24 00:33N 37°36' E 010°31'1211.9
2014-Aug-23 23:33N 37°33' E 010°45'1212.0
2014-Aug-23 22:31N 37°30' E 011°00'2612.5
2014-Aug-23 20:26N 37°19' E 011°30'  

Dump ship's entire track history